Time;durP1;ratioP1;P1;durP2;ratioP2;P2;SDS_P1;SDS_P2;PMS_P1;PMS_P2;Temp;Humidity;BMP_temperature;BMP_pressure;BME280_temperature;BME280_humidity;BME280_pressure;Samples;Min_cycle;Max_cycle;Signal;HPM_P1;HPM_P2
2023/06/08 00:01:48;;;;;;;5.90;5.50;;;;;;;17.53;90.30;98444.59;4106412;28;20218;-49
2023/06/08 00:03:51;;;;;;;5.28;4.88;;;;;;;17.47;90.56;98438.28;4121103;28;20624;-47
2023/06/08 00:05:53;;;;;;;5.07;4.70;;;;;;;17.48;90.72;98441.88;4088231;28;20227;-49
2023/06/08 00:07:56;;;;;;;5.38;5.00;;;;;;;17.51;90.75;98439.34;4102594;28;20827;-48
2023/06/08 00:09:58;;;;;;;4.72;4.25;;;;;;;17.47;91.06;98445.75;4104890;28;20227;-48
2023/06/08 00:12:00;;;;;;;6.32;4.68;;;;;;;17.47;90.93;98440.22;4106228;28;20250;-49
2023/06/08 00:14:01;;;;;;;5.70;5.30;;;;;;;17.43;91.43;98434.47;4090330;28;20318;-49
2023/06/08 00:16:04;;;;;;;4.78;4.38;;;;;;;17.38;91.76;98444.78;4104690;28;20215;-48
2023/06/08 00:18:09;;;;;;;5.20;4.80;;;;;;;17.39;91.84;98446.44;4107766;28;20221;-49
2023/06/08 00:20:11;;;;;;;4.82;4.53;;;;;;;17.37;91.97;98434.81;4106812;28;21005;-47
2023/06/08 00:22:13;;;;;;;5.45;5.05;;;;;;;17.36;91.54;98441.44;4105725;28;20266;-49
2023/06/08 00:24:19;;;;;;;5.07;4.68;;;;;;;17.36;91.56;98433.13;4107885;28;20653;-48
2023/06/08 00:26:21;;;;;;;5.38;4.13;;;;;;;17.37;91.48;98437.56;4119245;28;20245;-48
2023/06/08 00:28:23;;;;;;;5.05;4.57;;;;;;;17.31;91.49;98434.03;4105055;28;20206;-49
2023/06/08 00:30:26;;;;;;;5.63;5.22;;;;;;;17.28;91.10;98431.03;4104214;28;20234;-48
2023/06/08 00:32:28;;;;;;;5.70;5.30;;;;;;;17.26;91.12;98430.50;4106162;28;20222;-48
2023/06/08 00:34:30;;;;;;;5.28;4.78;;;;;;;17.23;91.34;98431.06;4106382;28;20301;-49
2023/06/08 00:36:31;;;;;;;5.90;5.47;;;;;;;17.20;91.31;98431.69;4103392;28;21045;-48
2023/06/08 00:38:36;;;;;;;5.22;4.88;;;;;;;17.12;91.17;98430.38;4105217;28;20211;-48
2023/06/08 00:40:37;;;;;;;5.25;4.93;;;;;;;17.08;91.40;98428.50;4104651;28;20338;-48
2023/06/08 00:42:39;;;;;;;5.40;5.10;;;;;;;17.05;91.03;98423.56;4107213;28;20277;-48
2023/06/08 00:44:41;;;;;;;4.93;4.50;;;;;;;17.01;91.19;98428.03;4086665;28;20631;-49
2023/06/08 00:46:43;;;;;;;5.50;5.10;;;;;;;16.99;91.55;98424.75;4104509;28;20230;-49
2023/06/08 00:48:45;;;;;;;4.68;4.38;;;;;;;17.00;91.43;98420.84;4119744;28;20652;-49
2023/06/08 00:50:48;;;;;;;4.70;4.40;;;;;;;16.97;91.28;98426.16;4106181;28;20656;-48
2023/06/08 00:52:49;;;;;;;4.70;4.30;;;;;;;16.91;91.89;98428.16;4118293;28;20979;-48
2023/06/08 00:54:51;;;;;;;5.00;4.60;;;;;;;16.87;91.97;98426.25;4122794;28;20277;-48
2023/06/08 00:56:55;;;;;;;6.05;5.55;;;;;;;16.84;92.06;98424.06;4105027;28;20198;-48
2023/06/08 00:59:00;;;;;;;4.75;4.40;;;;;;;16.85;92.16;98422.94;4101597;28;20218;-49
2023/06/08 01:01:04;;;;;;;5.20;4.80;;;;;;;16.81;91.99;98417.19;4100496;28;20277;-48
2023/06/08 01:03:06;;;;;;;5.82;5.43;;;;;;;16.84;92.36;98421.31;4104232;28;20219;-48
2023/06/08 01:05:08;;;;;;;15.10;5.25;;;;;;;16.81;92.67;98432.94;4104232;28;20202;-49
2023/06/08 01:07:14;;;;;;;5.35;5.03;;;;;;;16.77;92.88;98432.69;4107633;28;20202;-47
2023/06/08 01:10:05;;;;;;;4.78;4.47;;;;;;;16.69;92.68;98427.81;4106507;28;20787;-49
2023/06/08 01:12:33;;;;;;;4.38;4.07;;;;;;;16.64;92.60;98427.84;4101618;28;21154;-48
2023/06/08 01:15:00;;;;;;;6.03;5.63;;;;;;;16.65;92.86;98429.53;4117468;28;20226;-47
2023/06/08 01:17:02;;;;;;;8.27;5.90;;;;;;;16.65;92.95;98428.69;4102383;28;20604;-48
2023/06/08 01:19:11;;;;;;;5.85;4.95;;;;;;;16.61;93.13;98428.44;4102815;28;20266;-48
2023/06/08 01:21:47;;;;;;;5.32;4.72;;;;;;;16.53;93.03;98426.31;4104594;28;20639;-48
2023/06/08 01:24:11;;;;;;;5.10;4.78;;;;;;;16.51;92.97;98428.56;4104758;28;20226;-48
2023/06/08 01:26:15;;;;;;;7.32;5.10;;;;;;;16.45;93.15;98424.19;4105878;28;20222;-48
2023/06/08 01:28:17;;;;;;;5.65;5.25;;;;;;;16.42;93.46;98424.75;4105650;28;20743;-49
2023/06/08 01:30:19;;;;;;;5.95;5.57;;;;;;;16.42;93.60;98421.19;4105670;28;20235;-48
2023/06/08 01:32:21;;;;;;;5.55;5.15;;;;;;;16.38;93.49;98423.69;4091407;28;20674;-49
2023/06/08 01:34:23;;;;;;;5.82;5.43;;;;;;;16.33;94.33;98429.22;4103594;28;20226;-47
2023/06/08 01:36:44;;;;;;;5.47;5.07;;;;;;;16.31;94.93;98427.88;4107914;28;20207;-49
2023/06/08 01:39:31;;;;;;;5.57;5.18;;;;;;;16.32;95.08;98419.28;4105159;28;20724;-48
2023/06/08 01:41:35;;;;;;;5.47;5.07;;;;;;;16.34;95.77;98421.75;4113191;28;20898;-48
2023/06/08 01:43:38;;;;;;;6.00;5.40;;;;;;;16.34;95.65;98417.06;4111070;28;20739;-49
2023/06/08 01:45:44;;;;;;;6.25;5.85;;;;;;;16.32;95.90;98422.06;4106351;28;20302;-48
2023/06/08 01:47:48;;;;;;;5.80;5.38;;;;;;;16.29;96.24;98421.81;4108736;28;20210;-47
2023/06/08 01:49:52;;;;;;;5.30;4.90;;;;;;;16.29;96.61;98414.34;4126484;28;20206;-48
2023/06/08 01:51:56;;;;;;;6.25;5.70;;;;;;;16.32;96.90;98418.47;4092777;29;20263;-48
2023/06/08 01:54:06;;;;;;;6.15;5.75;;;;;;;16.41;97.30;98416.75;4108464;28;20234;-47
2023/06/08 01:56:08;;;;;;;6.00;5.57;;;;;;;16.41;97.70;98414.81;4123442;28;20246;-48
2023/06/08 01:58:10;;;;;;;5.40;5.10;;;;;;;16.34;98.20;98417.06;4109114;28;20218;-49
2023/06/08 02:00:16;;;;;;;6.15;5.75;;;;;;;16.32;98.65;98413.78;4114017;28;20213;-48
2023/06/08 02:02:18;;;;;;;8.00;5.03;;;;;;;16.25;98.39;98413.28;4108685;28;20773;-48
2023/06/08 02:04:20;;;;;;;6.95;6.35;;;;;;;16.23;98.58;98409.97;4106641;28;20227;-49
2023/06/08 02:06:21;;;;;;;11.40;5.60;;;;;;;16.22;98.72;98407.53;4109511;28;20214;-48
2023/06/08 02:08:23;;;;;;;6.57;6.03;;;;;;;16.20;99.04;98407.78;4105665;28;20215;-48
2023/06/08 02:10:25;;;;;;;5.20;4.80;;;;;;;16.16;99.03;98409.47;4106405;28;20262;-48
2023/06/08 02:12:27;;;;;;;5.28;4.88;;;;;;;16.14;98.83;98400.66;4094399;28;20738;-48
2023/06/08 02:14:28;;;;;;;6.35;5.95;;;;;;;16.13;99.48;98410.06;4107588;28;20257;-50
2023/06/08 02:16:33;;;;;;;5.68;5.22;;;;;;;16.10;99.65;98405.09;4108987;28;20309;-48
2023/06/08 02:18:40;;;;;;;6.03;5.53;;;;;;;16.09;99.67;98402.66;4107015;28;20222;-48
2023/06/08 02:20:42;;;;;;;6.20;5.80;;;;;;;16.08;98.95;98406.50;4108580;28;20295;-49
2023/06/08 02:22:45;;;;;;;5.78;5.28;;;;;;;16.04;98.36;98399.91;4112392;28;20240;-48
2023/06/08 02:24:48;;;;;;;6.05;5.55;;;;;;;16.02;98.37;98411.25;4087900;28;20235;-48
2023/06/08 02:26:52;;;;;;;5.60;5.15;;;;;;;16.01;98.67;98406.84;4106640;28;22075;-48
2023/06/08 02:28:54;;;;;;;6.00;5.53;;;;;;;15.97;98.73;98403.00;4101670;28;20211;-47
2023/06/08 02:30:56;;;;;;;6.15;5.72;;;;;;;15.98;98.74;98407.44;4107947;28;20238;-49
2023/06/08 02:32:59;;;;;;;5.72;5.20;;;;;;;16.00;98.51;98405.19;4107915;28;20214;-48
2023/06/08 02:35:05;;;;;;;5.97;5.47;;;;;;;15.94;98.13;98395.28;4106076;28;20207;-48
2023/06/08 02:37:06;;;;;;;6.32;5.82;;;;;;;15.87;98.14;98394.81;4120690;28;20211;-48
2023/06/08 02:39:08;;;;;;;5.65;5.15;;;;;;;15.83;98.08;98404.75;4109495;28;20219;-49
2023/06/08 02:41:10;;;;;;;6.10;5.63;;;;;;;15.84;97.98;98400.06;4105315;28;20594;-48
2023/06/08 02:43:11;;;;;;;6.32;5.72;;;;;;;15.78;98.04;98407.56;4105471;28;20649;-48
2023/06/08 02:45:13;;;;;;;5.40;5.00;;;;;;;15.79;98.40;98409.22;4102689;28;20254;-48
2023/06/08 02:47:16;;;;;;;8.20;6.68;;;;;;;15.70;98.54;98413.66;4105848;28;20289;-48
2023/06/08 02:49:18;;;;;;;6.47;5.97;;;;;;;15.65;99.97;98418.41;4109271;28;20290;-48
2023/06/08 02:51:20;;;;;;;6.05;5.65;;;;;;;15.64;99.27;98401.00;4108543;28;20230;-49
2023/06/08 02:53:21;;;;;;;5.88;5.47;;;;;;;15.66;98.99;98409.84;4106459;28;20235;-48
2023/06/08 02:55:23;;;;;;;6.10;5.70;;;;;;;15.73;98.90;98406.75;4105421;28;20243;-47
2023/06/08 02:57:25;;;;;;;5.88;5.47;;;;;;;15.71;98.45;98407.03;4108038;28;20221;-48
2023/06/08 02:59:29;;;;;;;5.65;5.25;;;;;;;15.68;98.34;98407.63;4107382;28;20206;-48
2023/06/08 03:01:31;;;;;;;6.45;5.95;;;;;;;15.67;98.22;98400.44;4101716;28;20640;-48
2023/06/08 03:03:33;;;;;;;8.00;6.10;;;;;;;15.64;98.01;98401.00;4088022;28;20730;-48
2023/06/08 03:05:39;;;;;;;6.53;6.03;;;;;;;15.62;97.62;98397.72;4090824;28;20248;-48
2023/06/08 03:07:40;;;;;;;6.65;6.25;;;;;;;15.54;97.40;98403.84;4123429;28;20735;-48
2023/06/08 03:09:42;;;;;;;7.25;6.70;;;;;;;15.48;97.25;98401.38;4105389;28;20214;-49
2023/06/08 03:11:44;;;;;;;6.10;5.70;;;;;;;15.43;97.37;98402.25;4108990;28;20764;-49
2023/06/08 03:13:47;;;;;;;6.70;6.30;;;;;;;15.41;97.03;98401.72;4111741;28;20231;-49
2023/06/08 03:15:48;;;;;;;6.85;6.45;;;;;;;15.37;97.14;98405.31;4107730;28;20222;-48
2023/06/08 03:17:53;;;;;;;6.28;5.88;;;;;;;15.37;97.40;98406.13;4106774;28;20238;-49
2023/06/08 03:19:55;;;;;;;6.28;5.88;;;;;;;15.35;97.24;98413.88;4103114;28;20701;-49
2023/06/08 03:21:59;;;;;;;6.85;6.45;;;;;;;15.29;96.85;98409.44;4103825;28;20250;-48
2023/06/08 03:24:01;;;;;;;6.20;5.80;;;;;;;15.26;97.27;98409.19;4108865;28;20235;-48
2023/06/08 03:26:03;;;;;;;6.90;6.45;;;;;;;15.21;97.22;98406.44;4109488;28;20257;-47
2023/06/08 03:28:05;;;;;;;6.28;5.88;;;;;;;15.23;97.84;98405.06;4088414;29;20207;-48
2023/06/08 03:30:07;;;;;;;6.15;5.75;;;;;;;15.18;99.39;98402.34;4121602;28;20672;-48
2023/06/08 03:32:12;;;;;;;6.68;6.18;;;;;;;15.13;100.00;98394.09;4107383;28;20230;-48
2023/06/08 03:34:16;;;;;;;7.18;6.63;;;;;;;15.21;100.00;98406.44;4121546;28;20234;-47
2023/06/08 03:36:18;;;;;;;6.78;6.28;;;;;;;15.17;99.76;98406.19;4109071;28;20215;-49
2023/06/08 03:38:19;;;;;;;7.85;7.35;;;;;;;15.21;99.67;98407.28;4108050;28;20214;-49
2023/06/08 03:40:21;;;;;;;7.97;7.47;;;;;;;15.19;99.62;98401.25;4107644;28;20210;-48
2023/06/08 03:42:23;;;;;;;6.93;6.43;;;;;;;15.24;99.27;98406.72;4107129;28;20206;-49
2023/06/08 03:44:24;;;;;;;6.90;6.40;;;;;;;15.22;98.99;98403.41;4109975;28;20239;-49
2023/06/08 03:46:27;;;;;;;6.93;6.43;;;;;;;15.13;98.76;98405.13;4120412;28;20211;-49
2023/06/08 03:48:29;;;;;;;8.00;7.30;;;;;;;15.17;99.12;98395.16;4120162;28;20206;-49
2023/06/08 03:50:30;;;;;;;8.20;7.60;;;;;;;15.23;99.04;98402.31;4119533;28;20221;-49
2023/06/08 03:52:32;;;;;;;6.80;6.32;;;;;;;15.23;98.55;98405.06;4122947;28;20276;-48
2023/06/08 03:54:34;;;;;;;8.82;8.00;;;;;;;15.16;99.85;98398.22;4102679;28;20577;-48
2023/06/08 03:56:35;;;;;;;9.60;6.97;;;;;;;15.15;99.62;98402.91;4107761;28;20707;-48
2023/06/08 03:58:38;;;;;;;8.05;7.45;;;;;;;15.10;99.50;98404.84;4121605;28;20699;-48
2023/06/08 04:00:41;;;;;;;7.00;6.50;;;;;;;15.12;99.74;98408.16;4104386;28;20305;-49
2023/06/08 04:02:43;;;;;;;6.63;6.22;;;;;;;15.15;99.86;98404.81;4100952;28;20218;-48
2023/06/08 04:04:47;;;;;;;7.70;7.20;;;;;;;15.12;99.61;98406.22;4107839;28;20226;-49
2023/06/08 04:06:51;;;;;;;7.93;7.32;;;;;;;15.11;99.65;98401.81;4108069;28;20251;-49
2023/06/08 04:08:53;;;;;;;7.25;6.75;;;;;;;15.11;100.00;98404.56;4120355;28;20300;-48
2023/06/08 04:10:55;;;;;;;7.97;7.47;;;;;;;15.13;100.00;98405.13;4122052;28;20346;-48
2023/06/08 04:12:56;;;;;;;7.07;6.65;;;;;;;15.09;100.00;98403.22;4104750;28;20262;-48
2023/06/08 04:14:58;;;;;;;8.27;7.57;;;;;;;15.07;100.00;98405.41;4106234;28;20864;-49
2023/06/08 04:17:00;;;;;;;8.70;8.10;;;;;;;15.04;100.00;98401.28;4104227;28;20222;-47
2023/06/08 04:19:02;;;;;;;7.40;6.85;;;;;;;15.06;100.00;98401.00;4107799;28;20223;-48
2023/06/08 04:21:05;;;;;;;7.45;6.95;;;;;;;15.10;100.00;98405.66;4102463;28;20262;-48
2023/06/08 04:23:10;;;;;;;7.90;7.30;;;;;;;15.10;100.00;98400.16;4121543;28;20218;-48
2023/06/08 04:25:12;;;;;;;7.15;6.65;;;;;;;15.11;100.00;98399.03;4098036;28;20749;-49
2023/06/08 04:27:16;;;;;;;9.02;8.23;;;;;;;15.14;100.00;98400.41;4105199;28;20592;-49
2023/06/08 04:29:18;;;;;;;8.30;7.72;;;;;;;15.15;100.00;98402.91;4117954;28;20327;-47
2023/06/08 04:31:20;;;;;;;7.75;7.25;;;;;;;15.19;100.00;98398.47;4105416;28;20219;-48
2023/06/08 04:33:22;;;;;;;7.22;6.78;;;;;;;15.21;100.00;98396.25;4102568;28;21835;-49
2023/06/08 04:35:24;;;;;;;7.75;7.25;;;;;;;15.27;100.00;98403.41;4108053;28;20322;-48
2023/06/08 04:37:26;;;;;;;8.55;8.02;;;;;;;15.29;100.00;98403.13;4102357;28;20270;-48
2023/06/08 04:39:28;;;;;;;9.98;9.32;;;;;;;15.28;100.00;98402.28;4088273;28;20250;-49
2023/06/08 04:41:31;;;;;;;8.30;7.80;;;;;;;15.31;100.00;98407.22;4102821;28;20211;-48
2023/06/08 04:43:34;;;;;;;8.55;8.02;;;;;;;15.42;100.00;98403.34;4107377;28;20715;-48
2023/06/08 04:45:36;;;;;;;8.20;7.60;;;;;;;15.40;100.00;98401.97;4103752;28;20734;-49
2023/06/08 04:47:40;;;;;;;7.60;7.10;;;;;;;15.45;100.00;98402.81;4117027;28;20250;-49
2023/06/08 04:49:41;;;;;;;8.18;7.68;;;;;;;15.48;100.00;98402.22;4100289;28;20294;-49
2023/06/08 04:51:46;;;;;;;9.57;8.88;;;;;;;15.48;100.00;98402.22;4103919;28;20218;-48
2023/06/08 04:53:48;;;;;;;8.38;7.88;;;;;;;15.51;100.00;98407.16;4107760;28;20281;-48
2023/06/08 04:55:57;;;;;;;8.50;7.90;;;;;;;15.58;100.00;98407.69;4108259;28;20253;-47
2023/06/08 04:57:58;;;;;;;9.20;8.60;;;;;;;15.61;100.00;98406.28;4106581;28;20294;-47
2023/06/08 05:00:00;;;;;;;9.25;8.55;;;;;;;15.63;99.82;98409.59;4107908;28;20215;-48
2023/06/08 05:02:02;;;;;;;9.10;8.50;;;;;;;15.67;100.00;98405.13;4107587;28;20199;-49
2023/06/08 05:04:07;;;;;;;8.45;7.95;;;;;;;15.64;100.00;98412.03;4109757;28;20234;-48
2023/06/08 05:06:09;;;;;;;8.38;7.78;;;;;;;15.67;100.00;98411.50;4108425;28;20289;-47
2023/06/08 05:08:11;;;;;;;8.93;8.18;;;;;;;15.72;100.00;98410.63;4110049;28;20215;-48
2023/06/08 05:10:13;;;;;;;8.52;7.97;;;;;;;15.79;99.75;98409.22;4109140;28;20254;-48
2023/06/08 05:12:15;;;;;;;7.38;6.90;;;;;;;15.85;99.30;98418.28;4125418;28;20221;-48
2023/06/08 05:14:16;;;;;;;8.52;7.95;;;;;;;15.83;100.00;98421.31;4095960;28;20234;-48
2023/06/08 05:16:18;;;;;;;8.60;7.97;;;;;;;15.87;100.00;98413.28;4111211;28;20825;-49
2023/06/08 05:18:20;;;;;;;9.63;9.02;;;;;;;15.94;100.00;98420.13;4112236;28;20210;-48
2023/06/08 05:20:23;;;;;;;8.30;7.70;;;;;;;16.03;100.00;98415.66;4112726;28;20202;-48
2023/06/08 05:22:25;;;;;;;9.05;8.50;;;;;;;16.14;99.61;98416.38;4110445;28;20664;-48
2023/06/08 05:24:26;;;;;;;8.15;7.65;;;;;;;16.26;98.71;98420.44;4111995;28;20231;-48
2023/06/08 05:26:28;;;;;;;8.40;7.80;;;;;;;16.23;100.00;98415.50;4098773;28;20203;-49
2023/06/08 05:28:30;;;;;;;10.45;9.75;;;;;;;16.29;100.00;98417.09;4111173;28;20258;-49
2023/06/08 05:30:32;;;;;;;9.13;8.27;;;;;;;16.43;99.69;98415.34;4112110;28;22572;-48
2023/06/08 05:32:33;;;;;;;8.10;7.55;;;;;;;16.57;99.46;98421.03;4111982;28;20231;-49
2023/06/08 05:34:35;;;;;;;10.10;9.50;;;;;;;16.50;100.00;98415.84;4112398;28;21092;-48
2023/06/08 05:36:37;;;;;;;8.98;8.38;;;;;;;16.72;100.00;98418.13;4098208;28;20207;-48
2023/06/08 05:38:39;;;;;;;9.63;8.82;;;;;;;16.94;100.00;98416.50;4113759;28;20211;-48
2023/06/08 05:40:42;;;;;;;9.02;8.43;;;;;;;16.90;100.00;98409.88;4108573;28;20270;-48
2023/06/08 05:42:43;;;;;;;9.13;8.52;;;;;;;16.99;100.00;98413.69;4128560;28;20227;-48
2023/06/08 05:44:45;;;;;;;8.43;7.53;;;;;;;17.23;100.00;98408.94;4098077;28;20270;-48
2023/06/08 05:46:47;;;;;;;9.68;9.07;;;;;;;17.57;99.99;98404.94;4107328;28;20261;-48
2023/06/08 05:48:48;;;;;;;9.25;8.43;;;;;;;17.64;99.95;98410.94;4092955;28;20247;-48
2023/06/08 05:50:50;;;;;;;8.88;8.13;;;;;;;17.89;98.04;98409.75;4110818;28;20210;-48
2023/06/08 05:52:52;;;;;;;8.68;7.80;;;;;;;17.92;97.56;98418.25;4107459;28;20218;-47
2023/06/08 05:54:53;;;;;;;7.53;7.03;;;;;;;17.92;96.10;98409.16;4104828;28;20234;-48
2023/06/08 05:56:56;;;;;;;7.57;7.05;;;;;;;18.28;94.72;98404.69;4111738;28;20211;-49
2023/06/08 05:58:58;;;;;;;6.40;6.00;;;;;;;18.48;92.25;98409.91;4111188;28;20210;-47
2023/06/08 06:01:03;;;;;;;8.30;7.80;;;;;;;18.70;93.12;98412.84;4111332;28;20206;-47
2023/06/08 06:03:05;;;;;;;8.50;7.93;;;;;;;18.90;91.46;98409.69;4109806;28;20269;-48
2023/06/08 06:05:11;;;;;;;6.80;6.20;;;;;;;19.00;91.13;98418.66;4127253;28;20289;-48
2023/06/08 06:07:13;;;;;;;6.15;5.68;;;;;;;19.04;90.83;98418.88;4122388;28;20206;-49
2023/06/08 06:09:15;;;;;;;6.75;6.15;;;;;;;18.93;90.53;98418.22;4094056;28;20673;-47
2023/06/08 06:11:17;;;;;;;5.90;5.50;;;;;;;19.19;90.05;98421.34;4109989;28;20249;-48
2023/06/08 06:13:18;;;;;;;6.55;6.13;;;;;;;19.17;90.11;98418.06;4110268;28;20230;-47
2023/06/08 06:15:20;;;;;;;6.65;6.15;;;;;;;19.38;88.60;98424.88;4111859;28;21481;-48
2023/06/08 06:17:22;;;;;;;7.15;6.75;;;;;;;19.37;88.27;98424.03;4109976;28;20206;-49
2023/06/08 06:19:24;;;;;;;6.35;5.90;;;;;;;19.57;87.61;98417.25;4108015;28;20203;-48
2023/06/08 06:21:26;;;;;;;5.90;5.45;;;;;;;19.80;87.04;98433.69;4094124;28;20215;-49
2023/06/08 06:23:28;;;;;;;6.22;5.78;;;;;;;19.57;87.11;98425.59;4095399;28;20231;-48
2023/06/08 06:25:29;;;;;;;5.03;4.65;;;;;;;19.77;86.54;98434.28;4124637;28;20209;-49
2023/06/08 06:27:31;;;;;;;6.47;5.90;;;;;;;19.78;85.91;98424.00;4109096;28;20214;-48
2023/06/08 06:29:37;;;;;;;6.70;6.20;;;;;;;19.73;84.87;98419.41;4113252;28;20213;-48
2023/06/08 06:31:39;;;;;;;6.00;5.50;;;;;;;20.02;85.61;98430.94;4112448;28;20233;-48
2023/06/08 06:33:41;;;;;;;5.45;5.03;;;;;;;20.25;83.66;98429.84;4097842;28;20226;-47
2023/06/08 06:35:43;;;;;;;6.25;5.75;;;;;;;20.32;82.93;98429.44;4113766;28;20900;-48
2023/06/08 06:37:45;;;;;;;5.60;5.20;;;;;;;20.51;82.53;98424.53;4095699;28;20217;-48
2023/06/08 06:39:46;;;;;;;5.50;5.10;;;;;;;20.68;81.56;98424.63;4108487;28;20218;-48
2023/06/08 06:41:49;;;;;;;6.03;4.30;;;;;;;20.79;80.13;98423.22;4113752;28;20197;-48
2023/06/08 06:43:50;;;;;;;6.78;6.03;;;;;;;20.93;79.56;98432.34;4107404;28;20248;-49
2023/06/08 06:45:52;;;;;;;6.40;5.95;;;;;;;20.97;80.57;98433.34;4108946;28;20249;-48
2023/06/08 06:47:54;;;;;;;6.75;6.03;;;;;;;20.57;79.73;98431.59;4111276;28;20210;-47
2023/06/08 06:49:56;;;;;;;6.32;5.72;;;;;;;20.61;81.87;98432.59;4110510;28;20206;-47
2023/06/08 06:51:58;;;;;;;7.00;6.35;;;;;;;20.60;80.41;98436.50;4108470;28;20230;-49
2023/06/08 06:54:00;;;;;;;5.72;5.32;;;;;;;20.41;82.44;98438.66;4111572;28;20230;-49
2023/06/08 06:56:01;;;;;;;6.70;6.20;;;;;;;20.32;81.47;98446.13;4111218;28;20221;-48
2023/06/08 06:58:03;;;;;;;9.40;6.57;;;;;;;20.51;81.28;98443.97;4110924;28;20293;-48
2023/06/08 07:00:10;;;;;;;5.70;5.40;;;;;;;20.68;81.32;98444.09;4109486;28;20206;-48
2023/06/08 07:02:15;;;;;;;6.45;6.03;;;;;;;20.85;81.17;98444.22;4107716;28;20237;-48
2023/06/08 07:04:19;;;;;;;6.88;6.28;;;;;;;20.83;81.34;98438.13;4125416;28;20233;-48
2023/06/08 07:06:24;;;;;;;7.18;6.68;;;;;;;20.93;81.06;98441.53;4111318;28;20285;-48
2023/06/08 07:08:27;;;;;;;6.53;6.10;;;;;;;21.39;79.20;98432.72;4110573;28;20304;-48
2023/06/08 07:10:29;;;;;;;6.40;5.90;;;;;;;21.68;78.35;98438.56;4109444;28;20870;-49
2023/06/08 07:12:32;;;;;;;6.38;5.97;;;;;;;21.47;77.05;98435.53;4125163;28;20269;-47
2023/06/08 07:14:33;;;;;;;6.57;5.97;;;;;;;20.98;77.83;98437.78;4110724;28;20230;-48
2023/06/08 07:16:35;;;;;;;6.22;5.82;;;;;;;21.06;79.36;98439.78;4109012;28;20276;-47
2023/06/08 07:18:37;;;;;;;6.43;6.03;;;;;;;21.55;79.05;98431.13;4109408;28;20288;-48
2023/06/08 07:20:39;;;;;;;6.25;5.82;;;;;;;21.79;77.36;98437.13;4106700;28;20880;-48
2023/06/08 07:22:41;;;;;;;6.28;5.88;;;;;;;21.64;76.85;98440.34;4110825;28;20632;-48
2023/06/08 07:25:04;;;;;;;6.05;5.65;;;;;;;21.86;76.96;98438.31;4110213;28;20304;-48
2023/06/08 07:27:26;;;;;;;6.53;6.03;;;;;;;22.22;75.69;98430.47;4112400;28;20206;-48
2023/06/08 07:29:27;;;;;;;6.93;6.15;;;;;;;22.53;75.22;98435.91;4112854;28;20210;-48
2023/06/08 07:31:29;;;;;;;6.53;6.13;;;;;;;22.81;74.38;98431.59;4115579;28;20611;-47
2023/06/08 07:33:31;;;;;;;6.35;5.85;;;;;;;22.70;73.57;98435.91;4112180;28;20269;-47
2023/06/08 07:35:33;;;;;;;5.97;5.57;;;;;;;22.50;74.89;98436.59;4107644;28;20690;-48
2023/06/08 07:37:35;;;;;;;6.25;5.85;;;;;;;22.28;75.21;98434.75;4109723;28;20284;-49
2023/06/08 07:39:37;;;;;;;6.80;6.20;;;;;;;22.51;73.85;98441.00;4107928;28;20657;-48
2023/06/08 07:41:39;;;;;;;5.75;5.25;;;;;;;22.89;71.88;98427.97;4095051;29;20211;-48
2023/06/08 07:43:41;;;;;;;5.93;5.38;;;;;;;22.90;72.57;98424.06;4107389;28;20268;-47
2023/06/08 07:45:44;;;;;;;6.63;6.18;;;;;;;22.89;73.33;98425.19;4102449;28;20252;-48
2023/06/08 07:47:46;;;;;;;6.07;5.47;;;;;;;22.61;73.25;98423.91;4091304;28;20717;-47
2023/06/08 07:49:48;;;;;;;6.72;6.22;;;;;;;22.76;71.79;98423.44;4124637;28;20301;-48
2023/06/08 07:51:50;;;;;;;5.60;5.28;;;;;;;23.38;71.48;98417.00;4103684;28;20712;-48
2023/06/08 07:53:52;;;;;;;5.95;5.55;;;;;;;23.09;70.28;98418.88;4109335;28;20241;-48
2023/06/08 07:55:54;;;;;;;6.55;5.88;;;;;;;23.37;69.13;98418.16;4123322;28;20201;-48
2023/06/08 07:57:55;;;;;;;6.75;6.35;;;;;;;23.03;69.09;98406.28;4106342;28;20680;-48
2023/06/08 07:59:57;;;;;;;6.57;6.18;;;;;;;23.26;71.13;98404.91;4105973;28;20214;-48
2023/06/08 08:02:00;;;;;;;5.38;4.88;;;;;;;23.76;71.62;98411.41;4105142;28;20266;-47
2023/06/08 08:04:02;;;;;;;8.70;5.75;;;;;;;23.68;67.79;98407.47;4104190;28;20764;-48
2023/06/08 08:06:05;;;;;;;6.78;6.05;;;;;;;23.27;68.86;98403.75;4102419;28;20213;-47
2023/06/08 08:08:07;;;;;;;6.05;5.65;;;;;;;23.33;69.50;98399.63;4108214;28;20279;-49
2023/06/08 08:10:09;;;;;;;7.35;6.55;;;;;;;23.60;69.96;98410.31;4106006;28;20269;-48
2023/06/08 08:12:11;;;;;;;6.75;6.25;;;;;;;23.34;67.47;98398.44;4110741;28;20280;-48
2023/06/08 08:14:12;;;;;;;6.28;5.82;;;;;;;23.73;67.74;98403.66;4112486;28;20254;-49
2023/06/08 08:16:14;;;;;;;6.25;5.85;;;;;;;23.84;66.79;98395.38;4110888;28;20664;-48
2023/06/08 08:18:16;;;;;;;5.70;5.15;;;;;;;24.07;67.83;98393.91;4109954;28;20269;-47
2023/06/08 08:20:18;;;;;;;5.53;5.05;;;;;;;23.59;66.79;98386.34;4124237;28;20723;-47
2023/06/08 08:22:20;;;;;;;6.03;5.53;;;;;;;23.53;67.06;98390.47;4105530;28;20740;-48
2023/06/08 08:24:21;;;;;;;6.15;5.65;;;;;;;23.83;67.16;98388.16;4107880;28;20278;-48
2023/06/08 08:26:23;;;;;;;5.00;4.50;;;;;;;24.32;66.73;98386.50;4109956;28;20198;-49
2023/06/08 08:28:25;;;;;;;5.57;5.07;;;;;;;24.87;64.71;98395.38;4108657;28;20293;-46
2023/06/08 08:30:27;;;;;;;10.68;5.57;;;;;;;25.03;63.21;98382.31;4110613;28;21213;-48
2023/06/08 08:32:29;;;;;;;5.97;5.57;;;;;;;25.41;62.53;98369.69;4104161;28;20755;-47
2023/06/08 08:34:31;;;;;;;11.93;4.72;;;;;;;25.06;62.41;98376.84;4120571;28;20285;-48
2023/06/08 08:36:33;;;;;;;5.25;4.82;;;;;;;25.32;61.06;98363.38;4108760;28;20763;-48
2023/06/08 08:38:35;;;;;;;5.03;4.72;;;;;;;25.69;60.30;98372.59;4108639;28;20677;-48
2023/06/08 08:40:37;;;;;;;5.00;4.68;;;;;;;25.74;57.21;98370.34;4105506;28;20206;-47
2023/06/08 08:42:44;;;;;;;4.38;4.00;;;;;;;25.81;59.16;98370.59;4109282;28;20672;-48
2023/06/08 08:44:47;;;;;;;5.43;4.78;;;;;;;25.78;57.96;98374.09;4104435;28;20297;-49
2023/06/08 08:46:49;;;;;;;5.13;4.63;;;;;;;25.08;55.96;98374.53;4123242;28;20214;-48
2023/06/08 08:49:00;;;;;;;5.13;4.82;;;;;;;25.19;56.42;98370.09;4106368;28;20210;-48
2023/06/08 08:51:06;;;;;;;19.65;5.60;;;;;;;25.89;57.55;98371.66;4109742;28;20206;-48
2023/06/08 08:53:09;;;;;;;4.85;4.50;;;;;;;26.10;56.01;98373.16;4106123;28;20282;-48
2023/06/08 08:55:13;;;;;;;5.03;4.60;;;;;;;25.95;53.92;98370.25;4098976;28;20238;-48
2023/06/08 08:57:35;;;;;;;4.38;4.07;;;;;;;25.54;55.69;98376.91;4118784;28;20679;-48
2023/06/08 08:59:36;;;;;;;4.10;3.80;;;;;;;25.58;54.89;98371.44;4089692;28;20207;-48
2023/06/08 09:01:39;;;;;;;4.88;4.38;;;;;;;25.40;54.73;98376.44;4112498;28;20213;-48
2023/06/08 09:03:41;;;;;;;4.30;4.00;;;;;;;26.09;54.89;98365.06;4122835;28;20229;-48
2023/06/08 09:05:44;;;;;;;4.50;4.20;;;;;;;26.37;52.48;98372.34;4107911;28;20210;-48
2023/06/08 09:07:46;;;;;;;6.50;3.95;;;;;;;26.98;52.60;98372.94;4110123;28;20954;-48
2023/06/08 09:10:19;;;;;;;4.20;3.90;;;;;;;27.25;52.39;98372.88;4123026;28;20606;-47
2023/06/08 09:12:22;;;;;;;3.80;3.50;;;;;;;27.00;50.76;98365.75;4123906;28;20205;-48
2023/06/08 09:14:24;;;;;;;4.15;3.83;;;;;;;27.06;54.14;98364.31;4107949;28;20226;-48
2023/06/08 09:16:26;;;;;;;4.90;4.45;;;;;;;27.15;51.05;98365.00;4106859;28;20257;-48
2023/06/08 09:18:27;;;;;;;4.72;4.32;;;;;;;26.54;51.60;98368.47;4111596;28;20661;-47
2023/06/08 09:20:31;;;;;;;3.58;3.28;;;;;;;26.88;51.42;98365.84;4106107;28;20214;-48
2023/06/08 09:22:33;;;;;;;4.60;4.20;;;;;;;26.47;50.70;98359.81;4110303;28;20202;-49
2023/06/08 09:24:48;;;;;;;3.88;3.58;;;;;;;26.67;51.18;98359.63;4103286;28;20724;-49
2023/06/08 09:26:58;;;;;;;4.32;3.78;;;;;;;26.34;51.20;98372.25;4123699;28;20253;-48
2023/06/08 09:29:03;;;;;;;11.48;4.07;;;;;;;27.01;52.01;98358.97;4110053;28;20719;-49
2023/06/08 09:31:08;;;;;;;4.75;4.45;;;;;;;26.75;50.89;98361.47;4110049;28;20237;-48
2023/06/08 09:33:32;;;;;;;5.43;4.35;;;;;;;26.91;51.38;98359.50;4120602;28;20218;-47
2023/06/08 09:35:35;;;;;;;4.05;3.75;;;;;;;27.09;49.53;98360.78;4103498;28;20309;-48
2023/06/08 09:37:39;;;;;;;7.00;4.35;;;;;;;27.03;50.20;98362.22;4106157;28;20198;-48
2023/06/08 09:39:43;;;;;;;9.05;4.35;;;;;;;26.66;51.63;98355.19;4121572;28;20210;-48
2023/06/08 09:41:57;;;;;;;4.70;4.40;;;;;;;26.99;51.82;98360.50;4109173;28;20206;-48